Time;durP1;ratioP1;P1;durP2;ratioP2;P2;SDS_P1;SDS_P2;PMS_P1;PMS_P2;Temp;Humidity;BMP_temperature;BMP_pressure;BME280_temperature;BME280_humidity;BME280_pressure;Samples;Min_cycle;Max_cycle;Signal;HPM_P1;HPM_P2
2022/06/19 00:01:59;;;;;;;15.93;4.35;;;;;;;;;;5062690;28;20566;-60
2022/06/19 00:04:25;;;;;;;14.40;4.10;;;;;;;;;;5052432;28;20029;-60
2022/06/19 00:06:52;;;;;;;19.60;3.95;;;;;;;;;;5068662;28;20102;-60
2022/06/19 00:09:18;;;;;;;16.05;4.20;;;;;;;;;;5056074;28;20024;-60
2022/06/19 00:11:44;;;;;;;21.77;4.32;;;;;;;;;;5060164;28;20017;-60
2022/06/19 00:14:10;;;;;;;17.38;4.50;;;;;;;;;;5061311;28;20070;-60
2022/06/19 00:16:37;;;;;;;23.73;5.07;;;;;;;;;;5067027;28;20028;-60
2022/06/19 00:19:05;;;;;;;19.23;3.40;;;;;;;;;;5055218;28;20515;-60
2022/06/19 00:21:31;;;;;;;19.25;3.42;;;;;;;;;;5066938;28;20017;-60
2022/06/19 00:23:57;;;;;;;14.88;4.30;;;;;;;;;;5052736;28;20029;-60
2022/06/19 00:26:23;;;;;;;19.80;4.00;;;;;;;;;;5064857;28;20028;-60
2022/06/19 00:28:50;;;;;;;19.60;4.07;;;;;;;;;;5056222;28;20032;-60
2022/06/19 00:31:17;;;;;;;18.50;4.20;;;;;;;;;;5068406;28;20501;-60
2022/06/19 00:33:44;;;;;;;27.98;6.00;;;;;;;;;;5060092;28;20563;-60
2022/06/19 00:36:10;;;;;;;13.00;3.65;;;;;;;;;;5062040;28;20048;-60
2022/06/19 00:38:36;;;;;;;16.02;3.95;;;;;;;;;;5058225;28;20040;-60
2022/06/19 00:41:02;;;;;;;16.20;4.22;;;;;;;;;;5068325;28;20090;-60
2022/06/19 00:43:29;;;;;;;16.30;3.97;;;;;;;;;;5056332;28;20075;-60
2022/06/19 00:45:59;;;;;;;15.02;4.03;;;;;;;;;;5069871;28;20112;-60
2022/06/19 00:48:29;;;;;;;14.43;3.92;;;;;;;;;;5071589;28;20028;-60
2022/06/19 00:50:59;;;;;;;18.35;3.60;;;;;;;;;;5071946;28;20451;-60
2022/06/19 00:53:30;;;;;;;25.67;4.15;;;;;;;;;;5055634;28;20024;-60
2022/06/19 00:55:57;;;;;;;22.45;4.22;;;;;;;;;;5063193;28;20043;-60
2022/06/19 00:58:24;;;;;;;18.85;4.30;;;;;;;;;;5063256;28;20039;-60
2022/06/19 01:00:56;;;;;;;25.90;4.88;;;;;;;;;;5056342;28;20090;-60
2022/06/19 01:03:41;;;;;;;18.90;3.60;;;;;;;;;;5068099;28;20071;-60
2022/06/19 01:06:08;;;;;;;26.45;4.45;;;;;;;;;;5060708;28;20032;-60
2022/06/19 01:08:35;;;;;;;22.55;4.15;;;;;;;;;;5058916;28;20477;-60
2022/06/19 01:11:03;;;;;;;20.50;5.15;;;;;;;;;;5068187;28;20032;-60
2022/06/19 01:13:30;;;;;;;21.90;4.55;;;;;;;;;;5062635;28;20058;-60
2022/06/19 01:15:56;;;;;;;19.02;4.50;;;;;;;;;;5056407;28;20032;-60
2022/06/19 01:18:24;;;;;;;26.55;5.53;;;;;;;;;;5062118;28;20021;-60
2022/06/19 01:20:53;;;;;;;21.90;4.20;;;;;;;;;;5057101;28;20033;-60
2022/06/19 01:23:27;;;;;;;25.15;4.55;;;;;;;;;;5068008;28;20093;-60
2022/06/19 01:25:53;;;;;;;24.35;4.80;;;;;;;;;;5055905;28;20025;-60
2022/06/19 01:31:07;;;;;;;18.50;4.95;;;;;;;;;;5067924;28;20100;-60
2022/06/19 01:33:37;;;;;;;23.63;5.32;;;;;;;;;;5054908;28;20016;-60
2022/06/19 01:36:04;;;;;;;26.90;5.50;;;;;;;;;;5064036;28;20044;-60
2022/06/19 01:38:30;;;;;;;26.92;4.55;;;;;;;;;;5063066;28;20024;-60
2022/06/19 01:40:59;;;;;;;30.17;4.50;;;;;;;;;;5055882;28;20033;-60
2022/06/19 01:43:25;;;;;;;47.33;8.13;;;;;;;;;;5067462;28;20040;-60
2022/06/19 01:45:52;;;;;;;25.88;5.93;;;;;;;;;;5057837;28;20028;-60
2022/06/19 01:48:19;;;;;;;25.38;4.68;;;;;;;;;;5061085;28;20040;-60
2022/06/19 01:50:46;;;;;;;33.67;5.40;;;;;;;;;;5064700;28;20039;-60
2022/06/19 01:53:32;;;;;;;31.77;5.63;;;;;;;;;;5056422;28;20032;-60
2022/06/19 01:55:59;;;;;;;26.52;4.75;;;;;;;;;;5057974;28;20120;-60
2022/06/19 01:58:26;;;;;;;24.58;4.88;;;;;;;;;;5060693;28;20029;-60
2022/06/19 02:00:53;;;;;;;33.30;6.65;;;;;;;;;;5065236;28;20051;-60
2022/06/19 02:03:28;;;;;;;38.25;6.57;;;;;;;;;;5054064;28;20554;-60
2022/06/19 02:05:55;;;;;;;26.60;4.93;;;;;;;;;;5067538;28;20435;-60
2022/06/19 02:08:21;;;;;;;28.08;6.40;;;;;;;;;;5071811;28;20027;-60
2022/06/19 02:10:48;;;;;;;26.80;5.03;;;;;;;;;;5075063;28;20550;-60
2022/06/19 02:13:15;;;;;;;32.97;5.25;;;;;;;;;;5074856;28;20012;-60
2022/06/19 02:15:43;;;;;;;33.35;5.07;;;;;;;;;;5074589;28;20070;-60
2022/06/19 02:18:09;;;;;;;29.38;4.63;;;;;;;;;;5073843;28;20036;-60
2022/06/19 02:20:36;;;;;;;30.30;5.72;;;;;;;;;;5074251;28;20024;-60
2022/06/19 02:23:05;;;;;;;34.33;5.28;;;;;;;;;;5074856;28;20032;-60
2022/06/19 02:25:33;;;;;;;27.02;4.68;;;;;;;;;;5074640;28;20484;-60
2022/06/19 02:28:02;;;;;;;31.70;5.30;;;;;;;;;;5074593;28;20032;-60
2022/06/19 02:30:28;;;;;;;30.80;5.13;;;;;;;;;;5074229;28;20553;-60
2022/06/19 02:32:54;;;;;;;32.03;5.35;;;;;;;;;;5074887;28;20020;-60
2022/06/19 02:35:22;;;;;;;25.25;4.25;;;;;;;;;;5074510;28;20060;-60
2022/06/19 02:37:53;;;;;;;21.42;5.07;;;;;;;;;;5074505;28;20025;-60
2022/06/19 02:40:28;;;;;;;23.05;4.85;;;;;;;;;;5074487;28;20055;-60
2022/06/19 02:42:54;;;;;;;37.05;8.02;;;;;;;;;;5074689;28;20036;-60
2022/06/19 02:45:22;;;;;;;30.38;5.13;;;;;;;;;;5073898;28;20059;-60
2022/06/19 02:47:50;;;;;;;31.80;5.60;;;;;;;;;;5074087;28;20025;-60
2022/06/19 02:50:21;;;;;;;25.20;4.22;;;;;;;;;;5054014;28;20036;-60
2022/06/19 02:52:48;;;;;;;23.73;4.97;;;;;;;;;;5068898;28;20096;-60
2022/06/19 02:55:14;;;;;;;22.67;3.90;;;;;;;;;;5074145;28;20100;-60
2022/06/19 02:57:41;;;;;;;23.27;4.15;;;;;;;;;;5074080;28;20074;-60
2022/06/19 03:00:08;;;;;;;26.05;4.53;;;;;;;;;;5073655;28;20489;-60
2022/06/19 03:02:36;;;;;;;25.23;4.22;;;;;;;;;;5073297;28;20041;-60
2022/06/19 03:05:03;;;;;;;21.33;3.58;;;;;;;;;;5074193;28;20370;-60
2022/06/19 03:07:29;;;;;;;23.58;3.70;;;;;;;;;;5073873;28;20082;-60
2022/06/19 03:09:56;;;;;;;17.85;4.68;;;;;;;;;;5073898;28;20120;-60
2022/06/19 03:12:23;;;;;;;21.27;3.80;;;;;;;;;;5073864;28;20400;-60
2022/06/19 03:14:49;;;;;;;24.33;3.72;;;;;;;;;;5073429;28;20103;-60
2022/06/19 03:17:16;;;;;;;23.50;3.65;;;;;;;;;;5073723;28;20090;-60
2022/06/19 03:19:42;;;;;;;18.35;3.90;;;;;;;;;;5070095;28;20025;-60
2022/06/19 03:22:09;;;;;;;26.10;4.65;;;;;;;;;;5089698;28;20036;-60
2022/06/19 03:24:35;;;;;;;22.25;4.22;;;;;;;;;;5087417;28;20067;-60
2022/06/19 03:27:01;;;;;;;21.23;3.90;;;;;;;;;;5076407;28;20029;-60
2022/06/19 03:29:27;;;;;;;25.55;5.07;;;;;;;;;;5084697;28;20035;-60
2022/06/19 03:31:53;;;;;;;25.45;4.80;;;;;;;;;;5061772;28;20039;-60
2022/06/19 03:34:20;;;;;;;26.40;4.25;;;;;;;;;;5073126;28;20051;-60
2022/06/19 03:36:46;;;;;;;20.40;3.70;;;;;;;;;;5076159;28;20157;-61
2022/06/19 03:39:12;;;;;;;21.70;4.10;;;;;;;;;;5073975;28;20036;-61
2022/06/19 03:41:38;;;;;;;18.95;3.47;;;;;;;;;;5072605;28;20045;-61
2022/06/19 03:44:05;;;;;;;21.75;4.13;;;;;;;;;;5072620;28;20017;-61
2022/06/19 03:46:32;;;;;;;27.80;4.70;;;;;;;;;;5072376;28;20028;-61
2022/06/19 03:48:58;;;;;;;24.40;4.47;;;;;;;;;;5072826;28;20039;-61
2022/06/19 03:51:24;;;;;;;21.40;4.47;;;;;;;;;;5072378;28;20503;-61
2022/06/19 03:53:51;;;;;;;22.02;4.63;;;;;;;;;;5075774;28;20020;-61
2022/06/19 03:56:19;;;;;;;20.80;4.82;;;;;;;;;;5080966;28;20028;-61
2022/06/19 03:58:45;;;;;;;18.58;4.47;;;;;;;;;;5070600;28;20094;-61
2022/06/19 04:01:16;;;;;;;25.27;6.68;;;;;;;;;;5060863;28;20028;-61
2022/06/19 04:03:42;;;;;;;23.23;4.32;;;;;;;;;;5073717;28;20033;-61
2022/06/19 04:06:09;;;;;;;28.75;5.32;;;;;;;;;;5061122;28;20033;-61
2022/06/19 04:08:35;;;;;;;24.13;4.72;;;;;;;;;;5058530;28;20025;-60
2022/06/19 04:11:01;;;;;;;30.25;5.55;;;;;;;;;;5060251;28;20079;-61
2022/06/19 04:13:27;;;;;;;23.08;4.72;;;;;;;;;;5063813;28;20033;-61
2022/06/19 04:15:54;;;;;;;23.95;5.13;;;;;;;;;;5054753;28;21498;-61
2022/06/19 04:18:20;;;;;;;23.08;4.90;;;;;;;;;;5072660;28;20051;-61
2022/06/19 04:20:46;;;;;;;27.67;4.43;;;;;;;;;;5068431;28;20116;-61
2022/06/19 04:23:12;;;;;;;28.02;4.88;;;;;;;;;;5068367;28;20438;-61
2022/06/19 04:25:42;;;;;;;23.70;4.82;;;;;;;;;;5071718;28;20032;-61
2022/06/19 04:28:09;;;;;;;17.13;3.90;;;;;;;;;;5076651;28;20070;-61
2022/06/19 04:30:36;;;;;;;28.38;4.55;;;;;;;;;;5078168;28;20016;-61
2022/06/19 04:33:02;;;;;;;21.17;6.53;;;;;;;;;;5069286;28;20024;-61
2022/06/19 04:35:28;;;;;;;29.98;4.75;;;;;;;;;;5071874;28;20028;-61
2022/06/19 04:37:54;;;;;;;21.52;5.60;;;;;;;;;;5067524;28;20095;-61
2022/06/19 04:40:20;;;;;;;21.15;5.18;;;;;;;;;;5066214;28;20047;-61
2022/06/19 04:42:46;;;;;;;27.75;4.60;;;;;;;;;;5068743;28;20032;-61
2022/06/19 04:45:13;;;;;;;27.40;4.47;;;;;;;;;;5068651;28;20104;-61
2022/06/19 04:47:39;;;;;;;26.08;5.05;;;;;;;;;;5071340;28;20104;-61
2022/06/19 04:50:06;;;;;;;28.65;7.40;;;;;;;;;;5064640;28;20039;-61
2022/06/19 04:52:32;;;;;;;23.42;5.20;;;;;;;;;;5056381;28;20128;-61
2022/06/19 04:54:58;;;;;;;32.53;4.32;;;;;;;;;;5053727;28;20051;-61
2022/06/19 04:57:24;;;;;;;26.45;4.00;;;;;;;;;;5054057;28;20058;-61
2022/06/19 04:59:50;;;;;;;19.95;4.20;;;;;;;;;;5049517;28;20394;-61
2022/06/19 05:02:16;;;;;;;22.77;5.63;;;;;;;;;;5050603;28;20056;-61
2022/06/19 05:04:42;;;;;;;29.15;5.00;;;;;;;;;;5050804;28;20079;-61
2022/06/19 05:07:08;;;;;;;30.02;4.57;;;;;;;;;;5057069;28;20188;-61
2022/06/19 05:09:34;;;;;;;28.42;4.60;;;;;;;;;;5052229;28;20090;-61
2022/06/19 05:12:00;;;;;;;24.55;4.35;;;;;;;;;;5050327;28;20021;-61
2022/06/19 05:14:27;;;;;;;24.50;4.10;;;;;;;;;;5051519;28;20021;-61
2022/06/19 05:16:53;;;;;;;19.67;4.07;;;;;;;;;;5049964;28;20388;-61
2022/06/19 05:19:19;;;;;;;23.52;4.50;;;;;;;;;;5061735;28;20024;-61
2022/06/19 05:21:45;;;;;;;20.80;3.78;;;;;;;;;;5060051;28;20095;-61
2022/06/19 05:24:12;;;;;;;23.58;4.13;;;;;;;;;;5052483;28;20059;-61
2022/06/19 05:26:38;;;;;;;16.33;3.65;;;;;;;;;;5051102;28;20116;-61
2022/06/19 05:29:05;;;;;;;24.90;3.75;;;;;;;;;;5054949;28;20025;-61
2022/06/19 05:31:32;;;;;;;26.95;3.40;;;;;;;;;;5071240;28;20033;-61
2022/06/19 05:33:58;;;;;;;19.15;3.65;;;;;;;;;;5058110;28;20032;-61
2022/06/19 05:36:29;;;;;;;16.13;3.85;;;;;;;;;;5053839;28;20588;-61
2022/06/19 05:38:55;;;;;;;17.95;4.28;;;;;;;;;;5052012;28;20029;-61
2022/06/19 05:41:23;;;;;;;29.27;4.13;;;;;;;;;;5051320;28;20044;-61
2022/06/19 05:43:50;;;;;;;21.65;3.70;;;;;;;;;;5054397;28;20157;-61
2022/06/19 05:46:17;;;;;;;22.60;4.38;;;;;;;;;;5055471;28;20078;-61
2022/06/19 05:48:43;;;;;;;19.20;3.90;;;;;;;;;;5057788;28;20405;-61
2022/06/19 05:51:10;;;;;;;20.88;3.97;;;;;;;;;;5058360;28;20025;-61
2022/06/19 05:53:38;;;;;;;24.50;4.47;;;;;;;;;;5056267;28;20064;-61
2022/06/19 05:56:05;;;;;;;23.80;4.07;;;;;;;;;;5058291;28;20080;-62
2022/06/19 05:58:31;;;;;;;16.00;3.78;;;;;;;;;;5062047;28;20104;-62
2022/06/19 06:00:57;;;;;;;26.67;4.78;;;;;;;;;;5056388;28;20043;-62
2022/06/19 06:03:24;;;;;;;20.73;4.60;;;;;;;;;;5059033;28;20027;-62
2022/06/19 06:05:51;;;;;;;23.80;3.88;;;;;;;;;;5058235;28;20029;-62
2022/06/19 06:08:17;;;;;;;22.35;3.70;;;;;;;;;;5060656;28;20032;-62
2022/06/19 06:10:44;;;;;;;24.10;4.40;;;;;;;;;;5069384;28;20017;-62
2022/06/19 06:13:10;;;;;;;20.83;4.47;;;;;;;;;;5061054;28;20408;-68
2022/06/19 06:15:36;;;;;;;29.13;4.50;;;;;;;;;;5056734;28;20771;-70
2022/06/19 06:18:03;;;;;;;20.38;4.50;;;;;;;;;;5055057;28;20095;-67
2022/06/19 06:20:30;;;;;;;18.40;5.10;;;;;;;;;;5055587;28;20014;-67
2022/06/19 06:22:56;;;;;;;21.02;4.10;;;;;;;;;;5056256;28;20485;-67
2022/06/19 06:25:23;;;;;;;24.95;4.15;;;;;;;;;;5059071;28;20505;-67
2022/06/19 06:27:50;;;;;;;15.50;4.18;;;;;;;;;;5064990;28;20024;-67
2022/06/19 06:30:16;;;;;;;20.45;3.70;;;;;;;;;;5060459;28;20042;-62
2022/06/19 06:32:42;;;;;;;29.15;4.30;;;;;;;;;;5062961;28;20408;-62
2022/06/19 06:35:08;;;;;;;21.83;3.97;;;;;;;;;;5056540;28;20058;-62
2022/06/19 06:37:35;;;;;;;17.00;3.70;;;;;;;;;;5062394;28;20029;-62
2022/06/19 06:40:01;;;;;;;14.90;3.40;;;;;;;;;;5058944;28;20119;-62
2022/06/19 06:42:27;;;;;;;25.73;5.43;;;;;;;;;;5056575;28;20096;-62
2022/06/19 06:44:53;;;;;;;20.65;4.28;;;;;;;;;;5053140;28;20092;-62
2022/06/19 06:47:20;;;;;;;18.83;4.03;;;;;;;;;;5057525;28;20035;-62
2022/06/19 06:49:46;;;;;;;13.32;3.08;;;;;;;;;;5056322;28;20393;-62
2022/06/19 06:52:12;;;;;;;20.10;3.40;;;;;;;;;;5051349;28;20033;-63
2022/06/19 06:54:39;;;;;;;23.30;4.15;;;;;;;;;;5052904;28;20516;-62
2022/06/19 06:57:06;;;;;;;20.63;4.43;;;;;;;;;;5051982;28;20060;-62
2022/06/19 06:59:32;;;;;;;17.95;4.65;;;;;;;;;;5050093;28;20060;-63
2022/06/19 07:01:59;;;;;;;19.77;4.32;;;;;;;;;;5054368;28;20517;-63
2022/06/19 07:04:25;;;;;;;19.33;4.30;;;;;;;;;;5057906;28;20071;-63
2022/06/19 07:06:51;;;;;;;18.80;3.78;;;;;;;;;;5057061;28;20033;-62
2022/06/19 07:09:17;;;;;;;29.60;4.88;;;;;;;;;;5056364;28;20036;-63
2022/06/19 07:11:46;;;;;;;14.65;3.65;;;;;;;;;;5063534;28;20020;-63
2022/06/19 07:14:13;;;;;;;21.30;3.80;;;;;;;;;;5055227;28;20025;-62
2022/06/19 07:16:42;;;;;;;19.92;3.85;;;;;;;;;;5061258;28;20029;-63
2022/06/19 07:19:08;;;;;;;24.13;4.28;;;;;;;;;;5058435;28;20132;-62
2022/06/19 07:21:35;;;;;;;18.60;3.15;;;;;;;;;;5053854;28;20071;-62
2022/06/19 07:24:01;;;;;;;19.10;3.35;;;;;;;;;;5056162;28;20035;-62
2022/06/19 07:26:28;;;;;;;19.17;4.10;;;;;;;;;;5068721;28;20036;-62
2022/06/19 07:28:54;;;;;;;18.42;4.20;;;;;;;;;;5070864;28;20029;-63
2022/06/19 07:31:21;;;;;;;13.93;4.28;;;;;;;;;;5053716;28;20099;-63
2022/06/19 07:33:47;;;;;;;26.00;4.22;;;;;;;;;;5063084;28;20013;-65
2022/06/19 07:36:18;;;;;;;21.88;4.18;;;;;;;;;;5062711;28;20017;-62
2022/06/19 07:38:44;;;;;;;21.77;4.15;;;;;;;;;;5066599;28;20037;-64
2022/06/19 07:41:10;;;;;;;19.52;4.00;;;;;;;;;;5065871;28;20111;-67
2022/06/19 07:43:36;;;;;;;22.63;3.58;;;;;;;;;;5062456;28;20024;-62
2022/06/19 07:46:03;;;;;;;20.15;3.65;;;;;;;;;;5056981;28;20083;-62
2022/06/19 07:51:13;;;;;;;25.58;4.93;;;;;;;;;;5060757;28;20025;-62
2022/06/19 07:53:39;;;;;;;18.67;4.22;;;;;;;;;;5055371;28;20021;-62
2022/06/19 07:56:05;;;;;;;22.15;3.90;;;;;;;;;;5061197;28;20816;-62
2022/06/19 07:58:34;;;;;;;22.38;3.25;;;;;;;;;;5064298;28;20021;-62
2022/06/19 08:01:00;;;;;;;19.20;3.90;;;;;;;;;;5061310;28;20115;-62
2022/06/19 08:03:27;;;;;;;33.30;4.88;;;;;;;;;;5060135;28;20036;-62
2022/06/19 08:05:53;;;;;;;27.10;3.92;;;;;;;;;;5059753;28;20078;-62
2022/06/19 08:08:21;;;;;;;27.77;5.28;;;;;;;;;;5059526;28;20025;-62
2022/06/19 08:10:50;;;;;;;16.95;4.03;;;;;;;;;;5059944;28;20033;-66
2022/06/19 08:13:19;;;;;;;16.52;3.58;;;;;;;;;;5058468;28;20425;-62
2022/06/19 08:15:47;;;;;;;24.25;3.97;;;;;;;;;;5062305;28;20021;-62
2022/06/19 08:18:13;;;;;;;20.75;4.88;;;;;;;;;;5062407;28;20028;-62
2022/06/19 08:20:39;;;;;;;20.85;4.63;;;;;;;;;;5055323;28;20029;-62
2022/06/19 08:23:05;;;;;;;27.38;4.60;;;;;;;;;;5057025;28;20056;-62
2022/06/19 08:25:32;;;;;;;20.10;3.60;;;;;;;;;;5055470;28;20534;-62
2022/06/19 08:27:58;;;;;;;19.67;4.47;;;;;;;;;;5063827;28;20043;-62
2022/06/19 08:30:29;;;;;;;33.75;4.70;;;;;;;;;;5064195;28;20024;-62
2022/06/19 08:32:56;;;;;;;21.05;4.63;;;;;;;;;;5067271;28;20028;-61
2022/06/19 08:35:22;;;;;;;22.23;4.82;;;;;;;;;;5060225;28;20028;-62
2022/06/19 08:37:50;;;;;;;23.88;5.35;;;;;;;;;;5058755;28;20397;-62
2022/06/19 08:40:22;;;;;;;24.58;4.70;;;;;;;;;;5058057;28;20035;-62
2022/06/19 08:43:00;;;;;;;20.13;4.47;;;;;;;;;;5052487;28;20033;-61
2022/06/19 08:45:58;;;;;;;26.20;3.95;;;;;;;;;;5057277;28;20020;-61
2022/06/19 08:48:27;;;;;;;21.80;4.75;;;;;;;;;;5020693;28;20127;-61
2022/06/19 08:51:02;;;;;;;20.75;4.18;;;;;;;;;;5013657;28;20038;-61
2022/06/19 08:53:30;;;;;;;23.55;4.15;;;;;;;;;;5018519;28;20241;-61
2022/06/19 08:56:09;;;;;;;21.98;4.55;;;;;;;;;;5019668;28;20034;-61
2022/06/19 08:58:47;;;;;;;27.08;4.60;;;;;;;;;;5016347;28;20042;-61
2022/06/19 09:01:19;;;;;;;24.17;4.07;;;;;;;;;;5009520;28;20109;-61
2022/06/19 09:06:50;;;;;;;27.95;5.18;;;;;;;;;;5018523;28;20049;-61
2022/06/19 09:09:16;;;;;;;35.22;6.28;;;;;;;;;;5014655;28;20092;-61
2022/06/19 09:11:42;;;;;;;32.42;5.60;;;;;;;;;;5013478;28;20426;-61
2022/06/19 09:14:23;;;;;;;31.27;6.00;;;;;;;;;;5015412;28;20107;-61
2022/06/19 09:17:08;;;;;;;23.02;4.00;;;;;;;;;;5021510;28;20125;-61
2022/06/19 09:19:37;;;;;;;27.33;6.07;;;;;;;;;;5027957;28;20067;-61
2022/06/19 09:22:03;;;;;;;34.88;4.78;;;;;;;;;;5022497;28;20038;-60
2022/06/19 09:24:35;;;;;;;27.52;5.50;;;;;;;;;;5054942;28;20089;-61
2022/06/19 09:27:02;;;;;;;27.23;5.50;;;;;;;;;;5058705;28;20036;-61
2022/06/19 09:29:46;;;;;;;26.42;4.80;;;;;;;;;;5079991;28;20029;-61
2022/06/19 09:32:18;;;;;;;26.92;5.00;;;;;;;;;;5070635;28;20143;-61
2022/06/19 09:34:45;;;;;;;;;;;;;;;;;;5065513;28;20027;-63
2022/06/19 09:37:16;;;;;;;30.58;4.88;;;;;;;;;;5069690;28;19905;-63
2022/06/19 09:39:48;;;;;;;25.98;4.38;;;;;;;;;;5059257;28;20044;-62
2022/06/19 09:42:27;;;;;;;28.70;4.53;;;;;;;;;;5057599;28;20110;-62
2022/06/19 09:45:03;;;;;;;19.42;3.50;;;;;;;;;;5057779;28;20107;-62
2022/06/19 09:47:33;;;;;;;24.02;4.15;;;;;;;;;;5060370;28;20040;-62
2022/06/19 09:50:04;;;;;;;20.33;4.15;;;;;;;;;;5061691;28;20036;-61
2022/06/19 09:52:34;;;;;;;16.08;5.10;;;;;;;;;;5068849;28;20028;-61
2022/06/19 09:55:10;;;;;;;28.23;4.13;;;;;;;;;;5069593;28;20052;-61
2022/06/19 09:57:39;;;;;;;26.23;3.80;;;;;;;;;;5064514;28;20017;-61
2022/06/19 10:00:09;;;;;;;21.42;3.38;;;;;;;;;;5052188;28;20041;-61
2022/06/19 10:02:46;;;;;;;12.00;3.22;;;;;;;;;;5055810;28;20057;-61
2022/06/19 10:05:18;;;;;;;24.95;3.83;;;;;;;;;;5058563;28;20151;-61
2022/06/19 10:07:53;;;;;;;23.60;4.25;;;;;;;;;;5054879;28;20040;-62
2022/06/19 10:10:37;;;;;;;25.15;4.18;;;;;;;;;;5054171;28;20021;-61
2022/06/19 10:13:08;;;;;;;29.73;6.72;;;;;;;;;;5055534;28;20306;-61
2022/06/19 10:15:35;;;;;;;25.08;4.25;;;;;;;;;;5054577;28;20035;-61
2022/06/19 10:18:07;;;;;;;35.78;6.40;;;;;;;;;;5053518;28;20021;-61
2022/06/19 10:20:48;;;;;;;37.60;5.13;;;;;;;;;;5053677;28;20072;-61
2022/06/19 10:23:28;;;;;;;30.60;6.03;;;;;;;;;;5052896;28;20032;-61
2022/06/19 10:26:03;;;;;;;31.08;4.72;;;;;;;;;;5060112;28;20021;-61
2022/06/19 10:29:02;;;;;;;31.00;5.15;;;;;;;;;;5060602;28;20036;-61
2022/06/19 10:31:47;;;;;;;21.27;4.50;;;;;;;;;;5025405;28;20046;-61
2022/06/19 10:34:16;;;;;;;32.80;5.32;;;;;;;;;;5019132;28;20048;-61
2022/06/19 10:36:57;;;;;;;43.05;5.45;;;;;;;;;;5011267;28;20552;-61
2022/06/19 10:39:32;;;;;;;28.42;5.80;;;;;;;;;;5027893;28;20515;-61
2022/06/19 10:42:05;;;;;;;33.85;4.45;;;;;;;;;;5021614;28;20137;-61
2022/06/19 10:44:37;;;;;;;31.75;5.20;;;;;;;;;;5002564;28;20382;-61
2022/06/19 10:47:19;;;;;;;18.42;4.47;;;;;;;;;;5014494;28;20073;-61
2022/06/19 10:49:55;;;;;;;21.80;4.10;;;;;;;;;;5015121;28;20041;-61
2022/06/19 10:52:24;;;;;;;25.25;4.65;;;;;;;;;;5020825;28;20029;-61
2022/06/19 10:54:56;;;;;;;25.33;3.55;;;;;;;;;;5022623;28;20505;-61
2022/06/19 10:57:41;;;;;;;35.80;5.27;;;;;;;;;;5022619;28;20041;-61
2022/06/19 11:00:08;;;;;;;24.02;3.17;;;;;;;;;;5024140;28;20296;-61
2022/06/19 11:05:31;;;;;;;19.42;2.92;;;;;;;;;;5022117;28;20045;-61
2022/06/19 11:07:57;;;;;;;33.75;3.97;;;;;;;;;;5059379;28;20044;-61
2022/06/19 11:10:26;;;;;;;18.85;3.13;;;;;;;;;;5067312;28;20052;-61
2022/06/19 11:12:57;;;;;;;23.00;3.70;;;;;;;;;;5063475;28;20543;-61
2022/06/19 11:15:28;;;;;;;30.83;4.45;;;;;;;;;;5057523;28;20091;-61
2022/06/19 11:18:11;;;;;;;22.98;4.57;;;;;;;;;;5057570;28;20036;-61
2022/06/19 11:20:37;;;;;;;20.33;3.22;;;;;;;;;;5054841;28;20032;-61
2022/06/19 11:23:16;;;;;;;21.33;4.40;;;;;;;;;;5053901;28;20490;-62
2022/06/19 11:25:45;;;;;;;26.05;4.00;;;;;;;;;;5058028;28;20492;-61
2022/06/19 11:28:11;;;;;;;24.80;4.05;;;;;;;;;;5050956;28;20037;-61
2022/06/19 11:31:07;;;;;;;25.17;4.72;;;;;;;;;;5053090;28;20017;-61
2022/06/19 11:33:34;;;;;;;25.88;6.55;;;;;;;;;;5042130;28;20037;-62
2022/06/19 11:36:02;;;;;;;21.17;4.15;;;;;;;;;;5053859;28;20400;-61
2022/06/19 11:38:45;;;;;;;27.67;4.43;;;;;;;;;;5052430;28;20507;-61
2022/06/19 11:41:21;;;;;;;24.65;4.18;;;;;;;;;;5052159;28;20032;-61
2022/06/19 11:43:59;;;;;;;29.90;3.92;;;;;;;;;;5052344;28;20040;-61
2022/06/19 11:46:26;;;;;;;19.02;4.30;;;;;;;;;;5055141;28;20032;-61
2022/06/19 11:48:53;;;;;;;15.90;3.60;;;;;;;;;;5052287;28;20181;-61
2022/06/19 11:51:29;;;;;;;24.77;4.88;;;;;;;;;;5051164;28;20025;-61
2022/06/19 11:53:58;;;;;;;20.20;4.10;;;;;;;;;;5050208;28;20029;-61
2022/06/19 11:56:35;;;;;;;19.70;3.17;;;;;;;;;;5054627;28;20060;-61
2022/06/19 11:59:22;;;;;;;27.88;4.07;;;;;;;;;;5053101;28;20515;-61
2022/06/19 12:01:48;;;;;;;30.55;4.78;;;;;;;;;;5042326;28;20043;-61
2022/06/19 12:04:26;;;;;;;29.48;6.18;;;;;;;;;;5057950;28;20078;-61
2022/06/19 12:06:54;;;;;;;20.92;4.45;;;;;;;;;;5053186;28;20033;-61
2022/06/19 12:09:40;;;;;;;25.10;4.10;;;;;;;;;;5053886;28;20033;-61
2022/06/19 12:12:13;;;;;;;21.85;4.05;;;;;;;;;;5055820;28;20039;-61
2022/06/19 12:14:53;;;;;;;17.75;4.13;;;;;;;;;;5054725;28;20492;-61
2022/06/19 12:17:21;;;;;;;28.17;4.75;;;;;;;;;;5054024;28;20557;-61
2022/06/19 12:19:57;;;;;;;26.33;4.20;;;;;;;;;;5055277;28;20020;-61
2022/06/19 12:22:27;;;;;;;23.15;4.57;;;;;;;;;;5053020;28;20116;-61
2022/06/19 12:24:58;;;;;;;28.52;4.88;;;;;;;;;;5054803;28;20040;-61
2022/06/19 12:27:28;;;;;;;21.50;4.07;;;;;;;;;;5054278;28;20021;-61
2022/06/19 12:29:59;;;;;;;28.08;5.68;;;;;;;;;;5052341;28;20024;-61
2022/06/19 12:32:31;;;;;;;24.58;4.55;;;;;;;;;;5055541;28;20404;-61
2022/06/19 12:35:02;;;;;;;18.02;3.97;;;;;;;;;;5063903;28;20035;-61
2022/06/19 12:37:30;;;;;;;23.30;4.45;;;;;;;;;;5051583;28;20409;-61
2022/06/19 12:39:56;;;;;;;20.25;5.88;;;;;;;;;;5051788;28;20025;-61
2022/06/19 12:42:27;;;;;;;26.17;4.60;;;;;;;;;;5047836;28;20024;-61
2022/06/19 12:44:56;;;;;;;35.45;4.93;;;;;;;;;;5046341;28;20060;-61
2022/06/19 12:47:26;;;;;;;28.90;4.90;;;;;;;;;;5049210;28;20043;-61
2022/06/19 12:50:08;;;;;;;28.23;5.60;;;;;;;;;;5046156;28;20576;-61
2022/06/19 12:52:34;;;;;;;24.50;5.30;;;;;;;;;;5051781;28;20836;-61
2022/06/19 12:55:06;;;;;;;18.00;4.00;;;;;;;;;;5047311;28;20532;-61
2022/06/19 12:57:39;;;;;;;24.27;5.03;;;;;;;;;;5049976;28;20029;-61
2022/06/19 13:00:05;;;;;;;;;;;;;;;;;;5046159;28;20084;-61
2022/06/19 13:02:31;;;;;;;28.92;5.07;;;;;;;;;;5048566;28;20048;-61
2022/06/19 13:05:03;;;;;;;24.45;4.78;;;;;;;;;;5051690;28;20404;-61
2022/06/19 13:07:35;;;;;;;28.13;5.30;;;;;;;;;;5054809;28;20036;-61
2022/06/19 13:10:20;;;;;;;24.75;5.38;;;;;;;;;;5049300;28;20611;-64
2022/06/19 13:13:05;;;;;;;34.88;5.35;;;;;;;;;;5052446;28;20037;-62
2022/06/19 13:15:31;;;;;;;23.08;5.03;;;;;;;;;;5049242;28;20726;-61
2022/06/19 13:18:16;;;;;;;18.08;4.53;;;;;;;;;;5048593;28;20701;-61
2022/06/19 13:20:46;;;;;;;17.40;3.83;;;;;;;;;;5052167;28;20733;-62
2022/06/19 13:23:20;;;;;;;27.35;5.88;;;;;;;;;;5052609;28;20040;-62
2022/06/19 13:26:05;;;;;;;25.77;5.15;;;;;;;;;;5050525;28;20130;-62
2022/06/19 13:28:40;;;;;;;25.05;5.50;;;;;;;;;;5049933;28;20033;-61
2022/06/19 13:31:18;;;;;;;27.40;5.45;;;;;;;;;;5056626;28;20404;-66
2022/06/19 13:33:58;;;;;;;22.85;5.03;;;;;;;;;;5052567;28;20029;-65
2022/06/19 13:36:51;;;;;;;28.45;5.07;;;;;;;;;;5056275;28;20032;-61
2022/06/19 13:39:17;;;;;;;28.17;5.30;;;;;;;;;;5053443;28;20476;-61
2022/06/19 13:42:01;;;;;;;27.38;5.30;;;;;;;;;;5052078;28;20566;-61
2022/06/19 13:44:46;;;;;;;25.33;5.78;;;;;;;;;;5051661;28;20033;-61
2022/06/19 13:47:22;;;;;;;28.85;5.40;;;;;;;;;;5051397;28;20029;-61
2022/06/19 13:50:12;;;;;;;34.42;5.55;;;;;;;;;;5050565;28;20037;-61
2022/06/19 13:52:38;;;;;;;22.55;5.50;;;;;;;;;;5046569;28;20318;-61
2022/06/19 13:55:23;;;;;;;24.10;4.97;;;;;;;;;;5050668;28;20035;-61
2022/06/19 13:57:58;;;;;;;24.13;4.95;;;;;;;;;;5050628;28;20499;-61
2022/06/19 14:00:27;;;;;;;25.70;5.60;;;;;;;;;;5050496;28;20049;-61
2022/06/19 14:03:00;;;;;;;27.63;5.35;;;;;;;;;;5051491;28;20040;-61
2022/06/19 14:05:26;;;;;;;19.55;4.55;;;;;;;;;;5055758;28;20043;-61
2022/06/19 14:08:01;;;;;;;28.85;5.25;;;;;;;;;;5047830;28;20064;-61
2022/06/19 14:10:36;;;;;;;23.15;5.07;;;;;;;;;;5049809;28;20075;-61
2022/06/19 14:13:05;;;;;;;24.75;5.07;;;;;;;;;;5050261;28;20031;-62
2022/06/19 14:15:39;;;;;;;35.00;6.65;;;;;;;;;;5046654;28;20016;-61
2022/06/19 14:18:12;;;;;;;20.52;4.18;;;;;;;;;;5057518;28;20027;-61
2022/06/19 14:20:50;;;;;;;22.77;5.70;;;;;;;;;;5050455;28;20850;-61
2022/06/19 14:23:17;;;;;;;32.50;6.05;;;;;;;;;;5051998;28;20044;-61
2022/06/19 14:25:49;;;;;;;37.28;7.57;;;;;;;;;;5063789;28;20108;-61
2022/06/19 14:28:31;;;;;;;26.23;5.38;;;;;;;;;;5057759;28;20032;-61
2022/06/19 14:30:58;;;;;;;24.55;6.30;;;;;;;;;;5060404;28;20027;-62
2022/06/19 14:33:45;;;;;;;28.73;5.80;;;;;;;;;;5056438;28;20061;-61
2022/06/19 14:36:11;;;;;;;26.08;5.80;;;;;;;;;;5061125;28;20040;-61
2022/06/19 14:38:38;;;;;;;26.95;6.18;;;;;;;;;;5061057;28;20488;-61
2022/06/19 14:41:06;;;;;;;29.70;6.53;;;;;;;;;;5060373;28;20054;-62
2022/06/19 14:43:34;;;;;;;28.02;5.63;;;;;;;;;;5066202;28;20039;-61
2022/06/19 14:46:03;;;;;;;23.35;5.45;;;;;;;;;;5059575;28;20391;-61
2022/06/19 14:48:50;;;;;;;25.63;5.13;;;;;;;;;;5057619;28;20550;-61
2022/06/19 14:51:19;;;;;;;25.48;5.57;;;;;;;;;;5055513;28;20033;-62
2022/06/19 14:54:07;;;;;;;26.13;6.57;;;;;;;;;;5046489;28;20049;-61
2022/06/19 14:56:52;;;;;;;26.38;5.72;;;;;;;;;;5047592;28;20167;-61
2022/06/19 14:59:57;;;;;;;26.30;5.10;;;;;;;;;;5047676;28;20126;-61